sensor_id;sensor_type;location;lat;lon;timestamp;P1;durP1;ratioP1;P2;durP2;ratioP2
37657;SDS011;23500;53.268;8.308;2024-02-14T00:00:05;48.05;;;43.95;;
37657;SDS011;23500;53.268;8.308;2024-02-14T00:02:38;48.85;;;44.38;;
37657;SDS011;23500;53.268;8.308;2024-02-14T00:05:10;47.63;;;43.60;;
37657;SDS011;23500;53.268;8.308;2024-02-14T00:07:37;48.78;;;44.42;;
37657;SDS011;23500;53.268;8.308;2024-02-14T00:10:03;47.55;;;43.45;;
37657;SDS011;23500;53.268;8.308;2024-02-14T00:12:31;47.97;;;43.88;;
37657;SDS011;23500;53.268;8.308;2024-02-14T00:14:57;47.92;;;43.88;;
37657;SDS011;23500;53.268;8.308;2024-02-14T00:17:23;47.97;;;43.78;;
37657;SDS011;23500;53.268;8.308;2024-02-14T00:19:50;48.28;;;43.90;;
37657;SDS011;23500;53.268;8.308;2024-02-14T00:22:16;46.63;;;42.53;;
37657;SDS011;23500;53.268;8.308;2024-02-14T00:24:41;48.75;;;44.15;;
37657;SDS011;23500;53.268;8.308;2024-02-14T00:27:08;46.55;;;42.58;;
37657;SDS011;23500;53.268;8.308;2024-02-14T00:29:33;45.95;;;42.00;;
37657;SDS011;23500;53.268;8.308;2024-02-14T00:32:00;46.10;;;42.05;;
37657;SDS011;23500;53.268;8.308;2024-02-14T00:34:26;46.67;;;42.47;;
37657;SDS011;23500;53.268;8.308;2024-02-14T00:36:52;45.88;;;41.88;;
37657;SDS011;23500;53.268;8.308;2024-02-14T00:39:17;45.75;;;41.80;;
37657;SDS011;23500;53.268;8.308;2024-02-14T00:41:45;46.58;;;42.25;;
37657;SDS011;23500;53.268;8.308;2024-02-14T00:44:12;46.10;;;41.88;;
37657;SDS011;23500;53.268;8.308;2024-02-14T00:46:40;45.22;;;41.35;;
37657;SDS011;23500;53.268;8.308;2024-02-14T00:49:06;44.35;;;40.35;;
37657;SDS011;23500;53.268;8.308;2024-02-14T00:51:31;45.30;;;41.47;;
37657;SDS011;23500;53.268;8.308;2024-02-14T00:53:57;44.85;;;40.78;;
37657;SDS011;23500;53.268;8.308;2024-02-14T00:56:23;44.78;;;40.92;;
37657;SDS011;23500;53.268;8.308;2024-02-14T00:58:48;43.72;;;39.78;;
37657;SDS011;23500;53.268;8.308;2024-02-14T01:01:14;44.58;;;40.63;;
37657;SDS011;23500;53.268;8.308;2024-02-14T01:03:40;44.13;;;40.33;;
37657;SDS011;23500;53.268;8.308;2024-02-14T01:06:06;44.22;;;40.33;;
37657;SDS011;23500;53.268;8.308;2024-02-14T01:08:31;44.08;;;40.17;;
37657;SDS011;23500;53.268;8.308;2024-02-14T01:10:58;44.80;;;40.83;;
37657;SDS011;23500;53.268;8.308;2024-02-14T01:13:24;43.42;;;39.60;;
37657;SDS011;23500;53.268;8.308;2024-02-14T01:15:50;42.90;;;39.13;;
37657;SDS011;23500;53.268;8.308;2024-02-14T01:18:15;42.15;;;38.55;;
37657;SDS011;23500;53.268;8.308;2024-02-14T01:20:41;42.20;;;38.60;;
37657;SDS011;23500;53.268;8.308;2024-02-14T01:23:07;42.58;;;38.88;;
37657;SDS011;23500;53.268;8.308;2024-02-14T01:25:32;42.08;;;38.45;;
37657;SDS011;23500;53.268;8.308;2024-02-14T01:27:59;41.72;;;38.22;;
37657;SDS011;23500;53.268;8.308;2024-02-14T01:30:25;42.60;;;39.00;;
37657;SDS011;23500;53.268;8.308;2024-02-14T01:32:51;41.13;;;37.63;;
37657;SDS011;23500;53.268;8.308;2024-02-14T01:35:18;42.00;;;38.30;;
37657;SDS011;23500;53.268;8.308;2024-02-14T01:37:43;40.65;;;37.05;;
37657;SDS011;23500;53.268;8.308;2024-02-14T01:40:10;41.28;;;37.70;;
37657;SDS011;23500;53.268;8.308;2024-02-14T01:42:36;40.97;;;37.58;;
37657;SDS011;23500;53.268;8.308;2024-02-14T01:45:02;41.15;;;37.63;;
37657;SDS011;23500;53.268;8.308;2024-02-14T01:47:28;40.97;;;37.50;;
37657;SDS011;23500;53.268;8.308;2024-02-14T01:49:54;40.65;;;37.30;;
37657;SDS011;23500;53.268;8.308;2024-02-14T01:52:20;40.85;;;37.25;;
37657;SDS011;23500;53.268;8.308;2024-02-14T01:54:47;38.97;;;35.72;;
37657;SDS011;23500;53.268;8.308;2024-02-14T01:57:13;39.63;;;35.97;;
37657;SDS011;23500;53.268;8.308;2024-02-14T01:59:39;39.42;;;36.10;;
37657;SDS011;23500;53.268;8.308;2024-02-14T02:02:05;37.53;;;34.42;;
37657;SDS011;23500;53.268;8.308;2024-02-14T02:04:34;39.33;;;35.83;;
37657;SDS011;23500;53.268;8.308;2024-02-14T02:07:00;39.35;;;36.05;;
37657;SDS011;23500;53.268;8.308;2024-02-14T02:09:26;39.08;;;35.78;;
37657;SDS011;23500;53.268;8.308;2024-02-14T02:11:52;38.85;;;35.45;;
37657;SDS011;23500;53.268;8.308;2024-02-14T02:14:21;38.75;;;35.35;;
37657;SDS011;23500;53.268;8.308;2024-02-14T02:16:47;38.42;;;35.22;;
37657;SDS011;23500;53.268;8.308;2024-02-14T02:19:14;38.25;;;35.08;;
37657;SDS011;23500;53.268;8.308;2024-02-14T02:21:43;39.08;;;35.60;;
37657;SDS011;23500;53.268;8.308;2024-02-14T02:24:12;36.70;;;33.70;;
37657;SDS011;23500;53.268;8.308;2024-02-14T02:26:37;38.70;;;35.42;;
37657;SDS011;23500;53.268;8.308;2024-02-14T02:29:03;38.22;;;34.88;;
37657;SDS011;23500;53.268;8.308;2024-02-14T02:31:30;37.55;;;34.25;;
37657;SDS011;23500;53.268;8.308;2024-02-14T02:33:56;37.90;;;34.67;;
37657;SDS011;23500;53.268;8.308;2024-02-14T02:36:22;37.97;;;34.72;;
37657;SDS011;23500;53.268;8.308;2024-02-14T02:38:49;36.97;;;33.85;;
37657;SDS011;23500;53.268;8.308;2024-02-14T02:41:15;37.55;;;34.35;;
37657;SDS011;23500;53.268;8.308;2024-02-14T02:43:41;36.55;;;33.45;;
37657;SDS011;23500;53.268;8.308;2024-02-14T02:46:08;36.33;;;33.22;;
37657;SDS011;23500;53.268;8.308;2024-02-14T02:48:34;35.83;;;32.83;;
37657;SDS011;23500;53.268;8.308;2024-02-14T02:51:01;36.28;;;33.17;;
37657;SDS011;23500;53.268;8.308;2024-02-14T02:53:27;36.78;;;33.63;;
37657;SDS011;23500;53.268;8.308;2024-02-14T02:55:52;35.88;;;32.88;;
37657;SDS011;23500;53.268;8.308;2024-02-14T02:58:19;36.10;;;32.95;;
37657;SDS011;23500;53.268;8.308;2024-02-14T03:00:46;35.45;;;32.38;;
37657;SDS011;23500;53.268;8.308;2024-02-14T03:03:14;35.13;;;32.22;;
37657;SDS011;23500;53.268;8.308;2024-02-14T03:05:41;35.85;;;32.75;;
37657;SDS011;23500;53.268;8.308;2024-02-14T03:08:09;35.67;;;32.58;;
37657;SDS011;23500;53.268;8.308;2024-02-14T03:10:38;35.25;;;32.22;;
37657;SDS011;23500;53.268;8.308;2024-02-14T03:13:05;35.33;;;32.38;;
37657;SDS011;23500;53.268;8.308;2024-02-14T03:15:33;34.55;;;31.70;;
37657;SDS011;23500;53.268;8.308;2024-02-14T03:18:00;34.17;;;31.38;;
37657;SDS011;23500;53.268;8.308;2024-02-14T03:20:26;34.25;;;31.35;;
37657;SDS011;23500;53.268;8.308;2024-02-14T03:22:54;33.90;;;31.17;;
37657;SDS011;23500;53.268;8.308;2024-02-14T03:25:20;35.15;;;32.25;;
37657;SDS011;23500;53.268;8.308;2024-02-14T03:27:46;34.20;;;31.45;;
37657;SDS011;23500;53.268;8.308;2024-02-14T03:30:16;33.05;;;30.35;;
37657;SDS011;23500;53.268;8.308;2024-02-14T03:32:45;33.13;;;30.40;;
37657;SDS011;23500;53.268;8.308;2024-02-14T03:35:14;33.53;;;30.73;;
37657;SDS011;23500;53.268;8.308;2024-02-14T03:37:40;33.10;;;30.25;;
37657;SDS011;23500;53.268;8.308;2024-02-14T03:40:07;32.60;;;29.80;;
37657;SDS011;23500;53.268;8.308;2024-02-14T03:42:34;32.17;;;29.58;;
37657;SDS011;23500;53.268;8.308;2024-02-14T03:45:00;32.50;;;29.80;;
37657;SDS011;23500;53.268;8.308;2024-02-14T03:47:31;32.78;;;30.10;;
37657;SDS011;23500;53.268;8.308;2024-02-14T03:49:57;32.67;;;29.88;;
37657;SDS011;23500;53.268;8.308;2024-02-14T03:52:29;31.67;;;28.98;;
37657;SDS011;23500;53.268;8.308;2024-02-14T03:54:57;32.70;;;29.90;;
37657;SDS011;23500;53.268;8.308;2024-02-14T03:57:24;32.08;;;29.35;;
37657;SDS011;23500;53.268;8.308;2024-02-14T03:59:50;32.28;;;29.58;;
37657;SDS011;23500;53.268;8.308;2024-02-14T04:02:17;31.90;;;29.27;;
37657;SDS011;23500;53.268;8.308;2024-02-14T04:04:44;31.58;;;28.98;;
37657;SDS011;23500;53.268;8.308;2024-02-14T04:07:11;32.63;;;29.90;;
37657;SDS011;23500;53.268;8.308;2024-02-14T04:09:37;31.45;;;28.83;;
37657;SDS011;23500;53.268;8.308;2024-02-14T04:12:03;31.40;;;28.90;;
37657;SDS011;23500;53.268;8.308;2024-02-14T04:14:29;31.38;;;28.77;;
37657;SDS011;23500;53.268;8.308;2024-02-14T04:16:55;30.95;;;28.45;;
37657;SDS011;23500;53.268;8.308;2024-02-14T04:19:20;31.98;;;29.27;;
37657;SDS011;23500;53.268;8.308;2024-02-14T04:21:46;31.60;;;28.83;;
37657;SDS011;23500;53.268;8.308;2024-02-14T04:24:12;31.35;;;28.65;;
37657;SDS011;23500;53.268;8.308;2024-02-14T04:26:38;31.77;;;29.20;;
37657;SDS011;23500;53.268;8.308;2024-02-14T04:29:04;30.70;;;28.13;;
37657;SDS011;23500;53.268;8.308;2024-02-14T04:31:29;30.80;;;28.27;;
37657;SDS011;23500;53.268;8.308;2024-02-14T04:33:56;30.70;;;28.10;;
37657;SDS011;23500;53.268;8.308;2024-02-14T04:36:22;30.77;;;28.38;;
37657;SDS011;23500;53.268;8.308;2024-02-14T04:38:48;30.75;;;28.15;;
37657;SDS011;23500;53.268;8.308;2024-02-14T04:41:15;28.35;;;26.13;;
37657;SDS011;23500;53.268;8.308;2024-02-14T04:43:41;29.95;;;27.52;;
37657;SDS011;23500;53.268;8.308;2024-02-14T04:46:07;29.70;;;27.27;;
37657;SDS011;23500;53.268;8.308;2024-02-14T04:48:34;29.10;;;26.70;;
37657;SDS011;23500;53.268;8.308;2024-02-14T04:51:00;28.92;;;26.55;;
37657;SDS011;23500;53.268;8.308;2024-02-14T04:53:26;29.73;;;27.35;;
37657;SDS011;23500;53.268;8.308;2024-02-14T04:55:52;29.52;;;27.20;;
37657;SDS011;23500;53.268;8.308;2024-02-14T04:58:18;28.45;;;26.15;;
37657;SDS011;23500;53.268;8.308;2024-02-14T05:00:44;29.10;;;26.58;;
37657;SDS011;23500;53.268;8.308;2024-02-14T05:03:10;27.83;;;25.48;;
37657;SDS011;23500;53.268;8.308;2024-02-14T05:05:36;28.75;;;26.45;;
37657;SDS011;23500;53.268;8.308;2024-02-14T05:08:03;28.25;;;25.63;;
37657;SDS011;23500;53.268;8.308;2024-02-14T05:10:29;27.52;;;25.23;;
37657;SDS011;23500;53.268;8.308;2024-02-14T05:12:55;27.92;;;25.73;;
37657;SDS011;23500;53.268;8.308;2024-02-14T05:15:21;28.33;;;26.02;;
37657;SDS011;23500;53.268;8.308;2024-02-14T05:17:47;27.38;;;25.17;;
37657;SDS011;23500;53.268;8.308;2024-02-14T05:20:15;27.65;;;25.45;;
37657;SDS011;23500;53.268;8.308;2024-02-14T05:22:41;27.55;;;25.25;;
37657;SDS011;23500;53.268;8.308;2024-02-14T05:25:06;27.73;;;25.30;;
37657;SDS011;23500;53.268;8.308;2024-02-14T05:27:34;27.75;;;25.45;;
37657;SDS011;23500;53.268;8.308;2024-02-14T05:30:00;27.42;;;25.15;;
37657;SDS011;23500;53.268;8.308;2024-02-14T05:32:34;26.55;;;24.48;;
37657;SDS011;23500;53.268;8.308;2024-02-14T05:35:00;27.60;;;25.30;;
37657;SDS011;23500;53.268;8.308;2024-02-14T05:37:26;26.38;;;24.10;;
37657;SDS011;23500;53.268;8.308;2024-02-14T05:39:52;25.83;;;23.75;;
37657;SDS011;23500;53.268;8.308;2024-02-14T05:42:19;26.77;;;24.52;;
37657;SDS011;23500;53.268;8.308;2024-02-14T05:44:45;26.50;;;24.35;;
37657;SDS011;23500;53.268;8.308;2024-02-14T05:47:10;26.52;;;24.33;;
37657;SDS011;23500;53.268;8.308;2024-02-14T05:49:40;26.88;;;24.60;;
37657;SDS011;23500;53.268;8.308;2024-02-14T05:52:06;24.52;;;22.60;;
37657;SDS011;23500;53.268;8.308;2024-02-14T05:54:32;26.33;;;24.23;;
37657;SDS011;23500;53.268;8.308;2024-02-14T05:56:58;25.83;;;23.80;;
37657;SDS011;23500;53.268;8.308;2024-02-14T05:59:23;25.33;;;23.23;;
37657;SDS011;23500;53.268;8.308;2024-02-14T06:01:49;25.58;;;23.58;;
37657;SDS011;23500;53.268;8.308;2024-02-14T06:04:15;26.05;;;23.90;;
37657;SDS011;23500;53.268;8.308;2024-02-14T06:06:40;26.20;;;23.95;;
37657;SDS011;23500;53.268;8.308;2024-02-14T06:09:06;25.58;;;23.58;;
37657;SDS011;23500;53.268;8.308;2024-02-14T06:11:34;25.33;;;23.33;;
37657;SDS011;23500;53.268;8.308;2024-02-14T06:14:06;25.38;;;23.27;;
37657;SDS011;23500;53.268;8.308;2024-02-14T06:16:33;25.83;;;23.73;;
37657;SDS011;23500;53.268;8.308;2024-02-14T06:19:00;24.95;;;22.98;;
37657;SDS011;23500;53.268;8.308;2024-02-14T06:21:26;25.65;;;23.55;;
37657;SDS011;23500;53.268;8.308;2024-02-14T06:23:52;23.52;;;21.55;;
37657;SDS011;23500;53.268;8.308;2024-02-14T06:26:18;24.35;;;22.45;;
37657;SDS011;23500;53.268;8.308;2024-02-14T06:28:44;24.10;;;22.20;;
37657;SDS011;23500;53.268;8.308;2024-02-14T06:31:10;24.48;;;22.38;;
37657;SDS011;23500;53.268;8.308;2024-02-14T06:33:36;24.55;;;22.52;;
37657;SDS011;23500;53.268;8.308;2024-02-14T06:36:02;25.05;;;22.75;;
37657;SDS011;23500;53.268;8.308;2024-02-14T06:38:28;24.00;;;21.90;;
37657;SDS011;23500;53.268;8.308;2024-02-14T06:40:54;23.77;;;21.55;;
37657;SDS011;23500;53.268;8.308;2024-02-14T06:43:19;24.38;;;21.88;;
37657;SDS011;23500;53.268;8.308;2024-02-14T06:45:45;24.17;;;21.70;;
37657;SDS011;23500;53.268;8.308;2024-02-14T06:48:11;24.50;;;21.98;;
37657;SDS011;23500;53.268;8.308;2024-02-14T06:50:37;24.05;;;21.73;;
37657;SDS011;23500;53.268;8.308;2024-02-14T06:53:03;24.23;;;21.92;;
37657;SDS011;23500;53.268;8.308;2024-02-14T06:55:29;25.38;;;21.15;;
37657;SDS011;23500;53.268;8.308;2024-02-14T06:57:57;22.92;;;20.48;;
37657;SDS011;23500;53.268;8.308;2024-02-14T07:00:26;25.02;;;20.33;;
37657;SDS011;23500;53.268;8.308;2024-02-14T07:02:53;22.67;;;20.60;;
37657;SDS011;23500;53.268;8.308;2024-02-14T07:05:19;24.48;;;21.30;;
37657;SDS011;23500;53.268;8.308;2024-02-14T07:07:44;22.15;;;19.92;;
37657;SDS011;23500;53.268;8.308;2024-02-14T07:10:10;23.17;;;20.90;;
37657;SDS011;23500;53.268;8.308;2024-02-14T07:12:36;22.52;;;20.23;;
37657;SDS011;23500;53.268;8.308;2024-02-14T07:15:02;23.17;;;20.70;;
37657;SDS011;23500;53.268;8.308;2024-02-14T07:17:29;22.20;;;20.05;;
37657;SDS011;23500;53.268;8.308;2024-02-14T07:19:55;22.27;;;20.15;;
37657;SDS011;23500;53.268;8.308;2024-02-14T07:22:21;22.38;;;20.23;;
37657;SDS011;23500;53.268;8.308;2024-02-14T07:24:47;22.42;;;20.25;;
37657;SDS011;23500;53.268;8.308;2024-02-14T07:27:13;21.45;;;19.45;;
37657;SDS011;23500;53.268;8.308;2024-02-14T07:29:40;21.67;;;19.55;;
37657;SDS011;23500;53.268;8.308;2024-02-14T07:32:05;21.55;;;19.55;;
37657;SDS011;23500;53.268;8.308;2024-02-14T07:34:31;22.15;;;19.95;;
37657;SDS011;23500;53.268;8.308;2024-02-14T07:36:57;21.83;;;19.65;;
37657;SDS011;23500;53.268;8.308;2024-02-14T07:39:23;22.15;;;20.08;;
37657;SDS011;23500;53.268;8.308;2024-02-14T07:41:50;22.40;;;20.38;;
37657;SDS011;23500;53.268;8.308;2024-02-14T07:44:16;21.75;;;19.67;;
37657;SDS011;23500;53.268;8.308;2024-02-14T07:46:41;21.80;;;19.70;;
37657;SDS011;23500;53.268;8.308;2024-02-14T07:49:07;21.73;;;19.60;;
37657;SDS011;23500;53.268;8.308;2024-02-14T07:51:34;20.63;;;18.80;;
37657;SDS011;23500;53.268;8.308;2024-02-14T07:54:03;21.23;;;19.40;;
37657;SDS011;23500;53.268;8.308;2024-02-14T07:56:29;21.92;;;19.67;;
37657;SDS011;23500;53.268;8.308;2024-02-14T07:58:56;21.30;;;19.25;;
37657;SDS011;23500;53.268;8.308;2024-02-14T08:01:22;21.08;;;19.02;;
37657;SDS011;23500;53.268;8.308;2024-02-14T08:03:47;21.27;;;19.05;;
37657;SDS011;23500;53.268;8.308;2024-02-14T08:06:13;21.35;;;19.42;;
37657;SDS011;23500;53.268;8.308;2024-02-14T08:08:39;20.27;;;18.38;;
37657;SDS011;23500;53.268;8.308;2024-02-14T08:11:05;20.90;;;18.88;;
37657;SDS011;23500;53.268;8.308;2024-02-14T08:13:31;20.67;;;18.77;;
37657;SDS011;23500;53.268;8.308;2024-02-14T08:15:57;20.23;;;18.25;;
37657;SDS011;23500;53.268;8.308;2024-02-14T08:18:23;20.73;;;18.73;;
37657;SDS011;23500;53.268;8.308;2024-02-14T08:20:49;20.50;;;18.42;;
37657;SDS011;23500;53.268;8.308;2024-02-14T08:23:15;20.98;;;18.88;;
37657;SDS011;23500;53.268;8.308;2024-02-14T08:25:42;20.17;;;18.27;;
37657;SDS011;23500;53.268;8.308;2024-02-14T08:28:07;19.77;;;17.98;;
37657;SDS011;23500;53.268;8.308;2024-02-14T08:30:34;20.00;;;18.05;;
37657;SDS011;23500;53.268;8.308;2024-02-14T08:33:00;20.20;;;18.23;;
37657;SDS011;23500;53.268;8.308;2024-02-14T08:35:25;19.63;;;17.63;;
37657;SDS011;23500;53.268;8.308;2024-02-14T08:37:51;19.73;;;18.02;;
37657;SDS011;23500;53.268;8.308;2024-02-14T08:40:16;20.15;;;18.05;;
37657;SDS011;23500;53.268;8.308;2024-02-14T08:42:42;18.80;;;17.10;;
37657;SDS011;23500;53.268;8.308;2024-02-14T08:45:08;18.88;;;17.17;;
37657;SDS011;23500;53.268;8.308;2024-02-14T08:47:35;18.10;;;16.50;;
37657;SDS011;23500;53.268;8.308;2024-02-14T08:50:01;18.17;;;16.52;;
37657;SDS011;23500;53.268;8.308;2024-02-14T08:52:28;18.23;;;16.70;;
37657;SDS011;23500;53.268;8.308;2024-02-14T08:54:54;18.15;;;16.50;;
37657;SDS011;23500;53.268;8.308;2024-02-14T08:57:20;18.05;;;16.50;;
37657;SDS011;23500;53.268;8.308;2024-02-14T08:59:46;18.85;;;17.05;;
37657;SDS011;23500;53.268;8.308;2024-02-14T09:02:13;18.25;;;16.65;;
37657;SDS011;23500;53.268;8.308;2024-02-14T09:04:39;18.20;;;16.50;;
37657;SDS011;23500;53.268;8.308;2024-02-14T09:07:09;18.25;;;16.60;;
37657;SDS011;23500;53.268;8.308;2024-02-14T09:09:35;17.88;;;16.25;;
37657;SDS011;23500;53.268;8.308;2024-02-14T09:12:03;17.05;;;15.45;;
37657;SDS011;23500;53.268;8.308;2024-02-14T09:14:29;17.40;;;15.88;;
37657;SDS011;23500;53.268;8.308;2024-02-14T09:16:55;17.65;;;15.95;;
37657;SDS011;23500;53.268;8.308;2024-02-14T09:19:21;17.48;;;15.88;;
37657;SDS011;23500;53.268;8.308;2024-02-14T09:21:47;18.15;;;16.45;;
37657;SDS011;23500;53.268;8.308;2024-02-14T09:24:13;16.85;;;15.23;;
37657;SDS011;23500;53.268;8.308;2024-02-14T09:26:39;17.38;;;15.77;;
37657;SDS011;23500;53.268;8.308;2024-02-14T09:29:05;17.40;;;15.80;;
37657;SDS011;23500;53.268;8.308;2024-02-14T09:31:30;16.95;;;15.35;;
37657;SDS011;23500;53.268;8.308;2024-02-14T09:33:56;17.38;;;15.43;;
37657;SDS011;23500;53.268;8.308;2024-02-14T09:36:23;16.23;;;14.73;;
37657;SDS011;23500;53.268;8.308;2024-02-14T09:38:49;16.92;;;15.38;;
37657;SDS011;23500;53.268;8.308;2024-02-14T09:41:21;16.42;;;14.73;;
37657;SDS011;23500;53.268;8.308;2024-02-14T09:43:55;16.80;;;15.18;;
37657;SDS011;23500;53.268;8.308;2024-02-14T09:46:21;15.65;;;14.07;;
37657;SDS011;23500;53.268;8.308;2024-02-14T09:48:50;16.33;;;14.73;;
37657;SDS011;23500;53.268;8.308;2024-02-14T09:51:17;14.90;;;13.57;;
37657;SDS011;23500;53.268;8.308;2024-02-14T09:53:43;15.32;;;14.02;;
37657;SDS011;23500;53.268;8.308;2024-02-14T09:56:10;15.18;;;13.77;;
37657;SDS011;23500;53.268;8.308;2024-02-14T09:58:41;15.40;;;14.00;;
37657;SDS011;23500;53.268;8.308;2024-02-14T10:01:08;14.75;;;13.32;;
37657;SDS011;23500;53.268;8.308;2024-02-14T10:03:34;14.90;;;13.60;;
37657;SDS011;23500;53.268;8.308;2024-02-14T10:06:00;15.02;;;13.63;;
37657;SDS011;23500;53.268;8.308;2024-02-14T10:08:26;15.40;;;13.90;;
37657;SDS011;23500;53.268;8.308;2024-02-14T10:10:53;14.15;;;12.85;;
37657;SDS011;23500;53.268;8.308;2024-02-14T10:13:21;14.52;;;13.23;;
37657;SDS011;23500;53.268;8.308;2024-02-14T10:15:47;14.23;;;12.77;;
37657;SDS011;23500;53.268;8.308;2024-02-14T10:18:14;13.82;;;12.48;;
37657;SDS011;23500;53.268;8.308;2024-02-14T10:20:41;13.63;;;12.23;;
37657;SDS011;23500;53.268;8.308;2024-02-14T10:23:17;14.65;;;13.05;;
37657;SDS011;23500;53.268;8.308;2024-02-14T10:25:42;13.55;;;12.35;;
37657;SDS011;23500;53.268;8.308;2024-02-14T10:28:08;13.75;;;12.45;;
37657;SDS011;23500;53.268;8.308;2024-02-14T10:30:37;13.95;;;12.68;;
37657;SDS011;23500;53.268;8.308;2024-02-14T10:33:07;14.00;;;12.70;;
37657;SDS011;23500;53.268;8.308;2024-02-14T10:35:33;13.30;;;12.02;;
37657;SDS011;23500;53.268;8.308;2024-02-14T10:38:02;13.18;;;12.07;;
37657;SDS011;23500;53.268;8.308;2024-02-14T10:40:28;13.85;;;12.55;;
37657;SDS011;23500;53.268;8.308;2024-02-14T10:42:56;13.15;;;11.95;;
37657;SDS011;23500;53.268;8.308;2024-02-14T10:45:23;13.48;;;12.27;;
37657;SDS011;23500;53.268;8.308;2024-02-14T10:47:50;13.20;;;12.07;;
37657;SDS011;23500;53.268;8.308;2024-02-14T10:50:18;13.18;;;11.88;;
37657;SDS011;23500;53.268;8.308;2024-02-14T10:52:47;13.35;;;12.10;;
37657;SDS011;23500;53.268;8.308;2024-02-14T10:55:14;13.07;;;11.88;;
37657;SDS011;23500;53.268;8.308;2024-02-14T10:57:45;13.27;;;12.02;;
37657;SDS011;23500;53.268;8.308;2024-02-14T11:00:11;12.48;;;11.32;;
37657;SDS011;23500;53.268;8.308;2024-02-14T11:02:39;13.35;;;12.20;;
37657;SDS011;23500;53.268;8.308;2024-02-14T11:05:11;12.50;;;11.30;;
37657;SDS011;23500;53.268;8.308;2024-02-14T11:07:43;13.25;;;11.95;;
37657;SDS011;23500;53.268;8.308;2024-02-14T11:10:13;13.07;;;11.88;;
37657;SDS011;23500;53.268;8.308;2024-02-14T11:12:40;12.35;;;11.18;;
37657;SDS011;23500;53.268;8.308;2024-02-14T11:15:16;12.25;;;11.23;;
37657;SDS011;23500;53.268;8.308;2024-02-14T11:17:43;12.52;;;11.32;;
37657;SDS011;23500;53.268;8.308;2024-02-14T11:20:16;11.80;;;10.80;;
37657;SDS011;23500;53.268;8.308;2024-02-14T11:22:52;12.05;;;11.02;;
37657;SDS011;23500;53.268;8.308;2024-02-14T11:25:22;12.35;;;11.25;;
37657;SDS011;23500;53.268;8.308;2024-02-14T11:27:59;11.77;;;10.75;;
37657;SDS011;23500;53.268;8.308;2024-02-14T11:30:30;12.05;;;10.95;;
37657;SDS011;23500;53.268;8.308;2024-02-14T11:33:13;12.10;;;11.05;;
37657;SDS011;23500;53.268;8.308;2024-02-14T11:35:46;11.57;;;10.57;;
37657;SDS011;23500;53.268;8.308;2024-02-14T11:38:16;11.75;;;10.80;;
37657;SDS011;23500;53.268;8.308;2024-02-14T11:40:42;12.07;;;11.07;;
37657;SDS011;23500;53.268;8.308;2024-02-14T11:43:15;11.00;;;10.10;;
37657;SDS011;23500;53.268;8.308;2024-02-14T11:45:42;8.48;;;7.78;;
37657;SDS011;23500;53.268;8.308;2024-02-14T11:48:13;5.90;;;5.00;;
37657;SDS011;23500;53.268;8.308;2024-02-14T11:50:40;5.00;;;4.50;;
37657;SDS011;23500;53.268;8.308;2024-02-14T11:53:07;5.90;;;4.65;;
37657;SDS011;23500;53.268;8.308;2024-02-14T11:55:35;5.43;;;4.68;;
37657;SDS011;23500;53.268;8.308;2024-02-14T11:58:03;5.00;;;4.50;;
37657;SDS011;23500;53.268;8.308;2024-02-14T12:00:38;5.22;;;4.82;;
37657;SDS011;23500;53.268;8.308;2024-02-14T12:03:17;5.38;;;4.90;;
37657;SDS011;23500;53.268;8.308;2024-02-14T12:05:45;5.25;;;4.60;;
37657;SDS011;23500;53.268;8.308;2024-02-14T12:08:12;4.97;;;4.45;;
37657;SDS011;23500;53.268;8.308;2024-02-14T12:10:39;4.85;;;4.45;;
37657;SDS011;23500;53.268;8.308;2024-02-14T12:13:10;5.47;;;4.90;;
37657;SDS011;23500;53.268;8.308;2024-02-14T12:15:40;5.35;;;4.80;;
37657;SDS011;23500;53.268;8.308;2024-02-14T12:18:10;6.53;;;4.65;;
37657;SDS011;23500;53.268;8.308;2024-02-14T12:20:36;4.90;;;4.50;;
37657;SDS011;23500;53.268;8.308;2024-02-14T12:23:03;5.03;;;4.55;;
37657;SDS011;23500;53.268;8.308;2024-02-14T12:25:30;5.15;;;4.65;;
37657;SDS011;23500;53.268;8.308;2024-02-14T12:27:57;4.95;;;4.47;;
37657;SDS011;23500;53.268;8.308;2024-02-14T12:30:23;4.65;;;4.30;;
37657;SDS011;23500;53.268;8.308;2024-02-14T12:33:22;4.93;;;4.45;;
37657;SDS011;23500;53.268;8.308;2024-02-14T12:35:53;4.72;;;4.32;;
37657;SDS011;23500;53.268;8.308;2024-02-14T12:38:20;4.80;;;4.15;;
37657;SDS011;23500;53.268;8.308;2024-02-14T12:40:48;5.68;;;4.50;;
37657;SDS011;23500;53.268;8.308;2024-02-14T12:43:14;4.47;;;4.07;;
37657;SDS011;23500;53.268;8.308;2024-02-14T12:45:41;4.90;;;4.50;;
37657;SDS011;23500;53.268;8.308;2024-02-14T12:48:08;5.10;;;4.60;;
37657;SDS011;23500;53.268;8.308;2024-02-14T12:50:36;4.78;;;4.32;;
37657;SDS011;23500;53.268;8.308;2024-02-14T12:53:05;4.75;;;4.35;;
37657;SDS011;23500;53.268;8.308;2024-02-14T12:55:32;4.95;;;4.55;;
37657;SDS011;23500;53.268;8.308;2024-02-14T12:57:58;5.95;;;4.20;;
37657;SDS011;23500;53.268;8.308;2024-02-14T13:00:24;4.63;;;4.18;;
37657;SDS011;23500;53.268;8.308;2024-02-14T13:02:50;4.85;;;4.43;;
37657;SDS011;23500;53.268;8.308;2024-02-14T13:05:16;4.95;;;4.28;;
37657;SDS011;23500;53.268;8.308;2024-02-14T13:07:42;4.28;;;3.88;;
37657;SDS011;23500;53.268;8.308;2024-02-14T13:10:08;4.57;;;4.18;;
37657;SDS011;23500;53.268;8.308;2024-02-14T13:12:35;4.97;;;4.47;;
37657;SDS011;23500;53.268;8.308;2024-02-14T13:15:02;4.65;;;4.20;;
37657;SDS011;23500;53.268;8.308;2024-02-14T13:17:28;5.15;;;4.65;;
37657;SDS011;23500;53.268;8.308;2024-02-14T13:19:54;4.70;;;4.30;;
37657;SDS011;23500;53.268;8.308;2024-02-14T13:22:20;4.63;;;4.10;;
37657;SDS011;23500;53.268;8.308;2024-02-14T13:24:46;4.40;;;4.00;;
37657;SDS011;23500;53.268;8.308;2024-02-14T13:27:11;4.82;;;4.20;;
37657;SDS011;23500;53.268;8.308;2024-02-14T13:29:39;4.43;;;4.03;;
37657;SDS011;23500;53.268;8.308;2024-02-14T13:32:05;4.55;;;4.15;;
37657;SDS011;23500;53.268;8.308;2024-02-14T13:34:32;4.57;;;4.18;;
37657;SDS011;23500;53.268;8.308;2024-02-14T13:36:58;4.28;;;3.88;;
37657;SDS011;23500;53.268;8.308;2024-02-14T13:39:25;4.28;;;3.80;;
37657;SDS011;23500;53.268;8.308;2024-02-14T13:41:50;4.25;;;3.92;;
37657;SDS011;23500;53.268;8.308;2024-02-14T13:44:17;4.28;;;3.88;;
37657;SDS011;23500;53.268;8.308;2024-02-14T13:46:44;4.32;;;4.03;;
37657;SDS011;23500;53.268;8.308;2024-02-14T13:49:11;4.20;;;3.85;;
37657;SDS011;23500;53.268;8.308;2024-02-14T13:51:37;3.97;;;3.67;;
37657;SDS011;23500;53.268;8.308;2024-02-14T13:54:03;4.50;;;4.10;;
37657;SDS011;23500;53.268;8.308;2024-02-14T13:56:29;4.20;;;3.80;;
37657;SDS011;23500;53.268;8.308;2024-02-14T13:58:55;4.47;;;4.07;;
37657;SDS011;23500;53.268;8.308;2024-02-14T14:01:21;3.85;;;3.55;;
37657;SDS011;23500;53.268;8.308;2024-02-14T14:03:46;4.40;;;4.00;;
37657;SDS011;23500;53.268;8.308;2024-02-14T14:06:15;3.95;;;3.65;;
37657;SDS011;23500;53.268;8.308;2024-02-14T14:08:41;4.15;;;3.83;;
37657;SDS011;23500;53.268;8.308;2024-02-14T14:11:06;3.97;;;3.65;;
37657;SDS011;23500;53.268;8.308;2024-02-14T14:13:33;4.13;;;3.72;;
37657;SDS011;23500;53.268;8.308;2024-02-14T14:15:59;4.68;;;4.28;;
37657;SDS011;23500;53.268;8.308;2024-02-14T14:18:25;3.92;;;3.63;;
37657;SDS011;23500;53.268;8.308;2024-02-14T14:20:51;4.10;;;3.80;;
37657;SDS011;23500;53.268;8.308;2024-02-14T14:23:20;4.00;;;3.60;;